createdAt,value
2022-11-30T00:03:40.558Z,102195.78
2022-11-30T00:08:42.762Z,102192.91
2022-11-30T00:13:44.817Z,102203.91
2022-11-30T00:18:46.690Z,102201.69
2022-11-30T00:23:49.150Z,102193.78
2022-11-30T00:28:50.948Z,102195.41
2022-11-30T00:33:52.586Z,102197.88
2022-11-30T00:38:54.408Z,102192.91
2022-11-30T00:43:56.061Z,102197.13
2022-11-30T00:48:57.755Z,102192.66
2022-11-30T00:53:59.451Z,102190.91
2022-11-30T00:59:01.219Z,102194.06
2022-11-30T01:04:04.716Z,102189.19
2022-11-30T01:09:06.491Z,102183.22
2022-11-30T01:14:08.266Z,102185.56
2022-11-30T01:19:09.917Z,102198.41
2022-11-30T01:24:11.753Z,102189.56
2022-11-30T01:29:13.388Z,102202.69
2022-11-30T01:34:15.082Z,102197.47
2022-11-30T01:39:16.840Z,102197.34
2022-11-30T01:44:20.307Z,102197.91
2022-11-30T01:49:47.373Z,102197.47
2022-11-30T01:54:57.881Z,102189.91
2022-11-30T02:00:01.936Z,102205.16
2022-11-30T02:05:03.711Z,102204.63
2022-11-30T02:10:06.067Z,102205.91
2022-11-30T02:15:15.587Z,102200.34
2022-11-30T02:20:34.531Z,102209.00
2022-11-30T02:25:47.062Z,102208.88
2022-11-30T02:30:52.458Z,102212.03
2022-11-30T02:35:56.035Z,102203.06
2022-11-30T02:40:57.818Z,102210.28
2022-11-30T02:46:17.161Z,102216.03
2022-11-30T02:51:22.466Z,102217.25
2022-11-30T02:56:25.016Z,102215.53
2022-11-30T03:01:26.771Z,102218.72
2022-11-30T03:06:28.496Z,102210.03
2022-11-30T03:11:30.232Z,102217.97
2022-11-30T03:16:33.589Z,102225.63
2022-11-30T03:21:35.359Z,102226.22
2022-11-30T03:26:37.032Z,102219.88
2022-11-30T03:31:38.710Z,102218.72
2022-11-30T03:36:40.435Z,102227.97
2022-11-30T03:41:42.212Z,102215.41
2022-11-30T03:46:43.963Z,102223.75
2022-11-30T03:51:45.598Z,102221.00
2022-11-30T03:56:47.374Z,102234.97
2022-11-30T04:01:49.107Z,102224.59
2022-11-30T04:06:50.925Z,102223.25
2022-11-30T04:11:52.577Z,102232.13
2022-11-30T04:16:54.269Z,102235.69
2022-11-30T04:21:55.900Z,102238.31
2022-11-30T04:26:57.521Z,102238.06
2022-11-30T04:31:59.205Z,102249.16
2022-11-30T04:37:00.963Z,102246.53
2022-11-30T04:42:02.833Z,102251.03
2022-11-30T04:47:04.619Z,102252.16
2022-11-30T04:52:06.331Z,102254.16
2022-11-30T04:57:08.048Z,102253.28
2022-11-30T05:02:10.036Z,102257.50
2022-11-30T05:07:11.707Z,102260.38
2022-11-30T05:12:13.350Z,102264.13
2022-11-30T05:17:15.025Z,102263.63
2022-11-30T05:22:16.866Z,102281.06
2022-11-30T05:27:22.469Z,102276.72
2022-11-30T05:32:24.543Z,102271.56
2022-11-30T05:37:26.329Z,102277.34
2022-11-30T05:42:28.333Z,102277.56
2022-11-30T05:47:30.204Z,102282.81
2022-11-30T05:52:31.882Z,102279.56
2022-11-30T05:57:37.701Z,102289.56
2022-11-30T06:02:39.462Z,102300.03
2022-11-30T06:07:41.707Z,102292.53
2022-11-30T06:12:43.396Z,102297.03
2022-11-30T06:17:44.996Z,102301.78
2022-11-30T06:22:47.442Z,102296.03
2022-11-30T06:27:49.319Z,102293.81
2022-11-30T06:32:52.522Z,102293.09
2022-11-30T06:37:55.126Z,102287.59
2022-11-30T06:42:56.855Z,102295.81
2022-11-30T06:47:58.665Z,102294.84
2022-11-30T06:53:00.421Z,102300.09
2022-11-30T06:58:06.294Z,102305.03
2022-11-30T07:03:07.996Z,102310.28
2022-11-30T07:08:10.468Z,102309.78
2022-11-30T07:13:13.989Z,102321.50
2022-11-30T07:18:15.792Z,102328.59
2022-11-30T07:23:35.816Z,102328.34
2022-11-30T07:28:43.246Z,102338.41
2022-11-30T07:33:45.424Z,102330.59
2022-11-30T07:38:47.439Z,102342.81
2022-11-30T07:43:49.170Z,102345.44
2022-11-30T07:48:50.828Z,102350.75
2022-11-30T07:53:52.460Z,102356.75
2022-11-30T07:58:56.945Z,102368.59
2022-11-30T08:03:59.136Z,102370.06
2022-11-30T08:09:03.982Z,102357.66
2022-11-30T08:14:05.693Z,102360.97
2022-11-30T08:19:07.412Z,102363.34
2022-11-30T08:24:12.002Z,102374.44
2022-11-30T08:29:13.768Z,102379.31
2022-11-30T08:34:15.364Z,102389.03
2022-11-30T08:39:17.055Z,102389.16
2022-11-30T08:44:18.794Z,102394.91
2022-11-30T08:54:46.079Z,102413.09
2022-11-30T08:59:48.617Z,102412.97
2022-11-30T09:04:51.751Z,102421.66
2022-11-30T09:09:53.444Z,102429.53
2022-11-30T09:14:58.386Z,102426.41
2022-11-30T09:20:01.250Z,102431.78
2022-11-30T09:25:03.130Z,102434.28
2022-11-30T09:30:05.320Z,102444.38
2022-11-30T09:35:12.454Z,102448.09
2022-11-30T09:40:16.059Z,102452.09
2022-11-30T09:45:25.036Z,102449.75
2022-11-30T09:50:32.005Z,102454.34
2022-11-30T09:55:39.403Z,102452.84
2022-11-30T10:00:41.144Z,102449.59
2022-11-30T10:05:49.908Z,102447.00
2022-11-30T10:11:00.814Z,102446.88
2022-11-30T10:16:11.745Z,102451.09
2022-11-30T10:21:26.895Z,102448.06
2022-11-30T10:26:35.739Z,102442.59
2022-11-30T10:31:40.054Z,102437.59
2022-11-30T10:36:45.021Z,102435.22
2022-11-30T10:41:52.531Z,102430.13
2022-11-30T10:47:12.457Z,102427.84
2022-11-30T10:52:22.256Z,102427.06
2022-11-30T10:57:32.113Z,102416.97
2022-11-30T11:02:36.832Z,102420.78
2022-11-30T11:08:06.897Z,102416.25
2022-11-30T11:13:19.790Z,102419.50
2022-11-30T11:18:29.543Z,102412.66
2022-11-30T11:23:38.071Z,102426.03
2022-11-30T11:28:45.740Z,102429.75
2022-11-30T11:33:54.314Z,102428.50
2022-11-30T11:38:56.889Z,102424.44
2022-11-30T11:44:25.859Z,102430.66
2022-11-30T11:49:30.185Z,102427.75
2022-11-30T11:54:49.311Z,102428.25
2022-11-30T12:00:00.569Z,102421.38
2022-11-30T12:05:18.894Z,102423.38
2022-11-30T12:10:52.656Z,102424.16
2022-11-30T12:16:00.889Z,102427.00
2022-11-30T12:21:13.069Z,102426.88
2022-11-30T12:26:20.601Z,102416.97
2022-11-30T12:31:31.194Z,102427.66
2022-11-30T12:36:44.296Z,102431.63
2022-11-30T12:41:58.611Z,102424.16
2022-11-30T12:47:17.834Z,102434.16
2022-11-30T12:52:56.900Z,102433.97
2022-11-30T12:58:15.183Z,102436.63
2022-11-30T13:03:39.325Z,102437.00
2022-11-30T13:08:55.937Z,102449.25
2022-11-30T13:14:00.144Z,102441.88
2022-11-30T13:19:34.179Z,102447.59
2022-11-30T13:24:42.162Z,102452.22
2022-11-30T13:30:04.158Z,102451.06
2022-11-30T13:35:27.863Z,102453.56
2022-11-30T13:40:29.926Z,102452.28
2022-11-30T13:45:34.644Z,102445.16
2022-11-30T13:50:40.221Z,102455.78
2022-11-30T13:55:42.614Z,102457.31
2022-11-30T14:01:04.436Z,102451.28
2022-11-30T14:06:44.521Z,102463.75
2022-11-30T14:11:46.340Z,102464.75
2022-11-30T14:16:48.823Z,102463.75
2022-11-30T14:21:50.678Z,102464.22
2022-11-30T14:26:52.757Z,102458.56
2022-11-30T14:32:03.233Z,102462.53
2022-11-30T14:37:21.226Z,102473.13
2022-11-30T14:42:28.485Z,102475.56
2022-11-30T14:47:36.512Z,102472.06
2022-11-30T14:53:05.524Z,102473.69
2022-11-30T14:58:30.919Z,102470.09
2022-11-30T15:03:40.304Z,102467.59
2022-11-30T15:08:47.813Z,102472.41
2022-11-30T15:14:06.480Z,102471.13
2022-11-30T15:19:28.033Z,102470.13
2022-11-30T15:24:30.552Z,102476.19
2022-11-30T15:29:38.773Z,102479.44
2022-11-30T15:34:51.120Z,102506.03
2022-11-30T15:39:58.273Z,102505.53
2022-11-30T15:45:16.041Z,102517.41
2022-11-30T15:50:26.462Z,102515.66
2022-11-30T15:55:43.864Z,102520.78
2022-11-30T16:01:09.430Z,102523.66
2022-11-30T16:06:19.597Z,102524.50
2022-11-30T16:11:21.634Z,102535.88
2022-11-30T16:16:28.678Z,102535.13
2022-11-30T16:21:30.543Z,102539.97
2022-11-30T16:31:53.985Z,102543.34
2022-11-30T16:37:10.937Z,102546.09
2022-11-30T16:42:12.905Z,102552.06
2022-11-30T16:47:14.603Z,102558.06
2022-11-30T16:52:19.207Z,102565.28
2022-11-30T16:57:20.961Z,102571.50
2022-11-30T17:02:23.613Z,102578.88
2022-11-30T17:07:25.482Z,102587.69
2022-11-30T17:12:27.203Z,102586.94
2022-11-30T17:17:28.907Z,102597.16
2022-11-30T17:22:30.834Z,102598.03
2022-11-30T17:27:32.504Z,102603.09
2022-11-30T17:32:34.299Z,102608.56
2022-11-30T17:37:36.098Z,102609.53
2022-11-30T17:42:37.759Z,102611.53
2022-11-30T17:47:39.399Z,102614.28
2022-11-30T17:52:41.107Z,102612.66
2022-11-30T17:57:42.931Z,102615.25
2022-11-30T18:02:44.642Z,102613.75
2022-11-30T18:07:47.109Z,102614.84
2022-11-30T18:12:49.137Z,102614.34
2022-11-30T18:17:50.827Z,102629.16
2022-11-30T18:22:52.485Z,102628.38
2022-11-30T18:33:14.264Z,102641.28
2022-11-30T18:38:17.146Z,102636.03
2022-11-30T18:43:19.228Z,102646.81
2022-11-30T18:48:20.950Z,102649.53
2022-11-30T18:53:22.706Z,102655.63
2022-11-30T18:58:24.499Z,102650.91
2022-11-30T19:03:26.649Z,102656.91
2022-11-30T19:08:29.439Z,102658.56
2022-11-30T19:13:37.044Z,102661.91
2022-11-30T19:18:39.559Z,102663.91
2022-11-30T19:23:41.901Z,102657.66
2022-11-30T19:28:44.722Z,102659.16
2022-11-30T19:33:48.561Z,102661.69
2022-11-30T19:38:51.496Z,102668.50
2022-11-30T19:44:03.211Z,102671.81
2022-11-30T19:49:08.009Z,102681.66
2022-11-30T19:54:10.761Z,102684.53
2022-11-30T19:59:12.491Z,102693.25
2022-11-30T20:04:14.305Z,102688.66
2022-11-30T20:14:39.501Z,102697.19
2022-11-30T20:19:41.175Z,102703.53
2022-11-30T20:24:42.985Z,102695.31
2022-11-30T20:29:44.641Z,102700.81
2022-11-30T20:34:46.637Z,102709.69
2022-11-30T20:39:48.447Z,102710.75
2022-11-30T20:44:50.276Z,102701.13
2022-11-30T20:49:52.304Z,102698.53
2022-11-30T20:54:53.958Z,102707.16
2022-11-30T20:59:55.689Z,102709.03
2022-11-30T21:04:57.459Z,102702.28
2022-11-30T21:09:59.158Z,102696.69
2022-11-30T21:15:00.931Z,102695.59
2022-11-30T21:20:03.902Z,102696.41
2022-11-30T21:25:05.916Z,102692.44
2022-11-30T21:30:08.312Z,102684.34
2022-11-30T21:35:10.253Z,102676.47
2022-11-30T21:40:13.325Z,102690.81
2022-11-30T21:45:15.037Z,102691.47
2022-11-30T21:50:16.778Z,102693.31
2022-11-30T21:55:18.456Z,102705.38
2022-11-30T22:00:20.603Z,102710.75
2022-11-30T22:05:22.342Z,102706.69
2022-11-30T22:10:24.030Z,102713.84
2022-11-30T22:15:25.994Z,102705.63
2022-11-30T22:20:27.672Z,102695.69
2022-11-30T22:25:29.345Z,102701.16
2022-11-30T22:30:33.807Z,102699.53
2022-11-30T22:35:35.865Z,102706.72
2022-11-30T22:40:59.033Z,102711.69
2022-11-30T22:46:06.058Z,102709.34
2022-11-30T22:51:13.447Z,102713.97
2022-11-30T22:56:18.450Z,102717.03
2022-11-30T23:01:26.025Z,102721.63
2022-11-30T23:06:28.370Z,102721.19
2022-11-30T23:11:33.380Z,102722.06
2022-11-30T23:16:38.379Z,102729.72
2022-11-30T23:21:42.372Z,102733.13
2022-11-30T23:26:44.665Z,102731.34
2022-11-30T23:31:47.562Z,102731.78
2022-11-30T23:36:50.265Z,102736.59
2022-11-30T23:41:52.048Z,102738.66
2022-11-30T23:46:54.000Z,102733.00
2022-11-30T23:51:56.028Z,102735.19
2022-11-30T23:57:00.483Z,102727.84
